sensor_id;sensor_type;location;lat;lon;timestamp;temperature;humidity
23100;DHT22;53791;50.696;4.396;2023-09-07T00:01:52;20.70;99.90
23100;DHT22;53791;50.696;4.396;2023-09-07T00:04:20;20.70;99.90
23100;DHT22;53791;50.696;4.396;2023-09-07T00:06:49;20.60;99.90
23100;DHT22;53791;50.696;4.396;2023-09-07T00:09:17;20.40;99.90
23100;DHT22;53791;50.696;4.396;2023-09-07T00:11:48;20.30;99.90
23100;DHT22;53791;50.696;4.396;2023-09-07T00:14:16;20.20;99.90
23100;DHT22;53791;50.696;4.396;2023-09-07T00:16:43;20.10;99.90
23100;DHT22;53791;50.696;4.396;2023-09-07T00:19:11;20.00;99.90
23100;DHT22;53791;50.696;4.396;2023-09-07T00:21:38;19.90;99.90
23100;DHT22;53791;50.696;4.396;2023-09-07T00:24:06;19.90;99.90
23100;DHT22;53791;50.696;4.396;2023-09-07T00:26:33;19.80;99.90
23100;DHT22;53791;50.696;4.396;2023-09-07T00:29:01;19.70;99.90
23100;DHT22;53791;50.696;4.396;2023-09-07T00:31:29;19.70;99.90
23100;DHT22;53791;50.696;4.396;2023-09-07T00:33:56;19.60;99.90
23100;DHT22;53791;50.696;4.396;2023-09-07T00:36:24;19.50;99.90
23100;DHT22;53791;50.696;4.396;2023-09-07T00:38:51;19.50;99.90
23100;DHT22;53791;50.696;4.396;2023-09-07T00:41:19;19.50;99.90
23100;DHT22;53791;50.696;4.396;2023-09-07T00:43:46;19.50;99.90
23100;DHT22;53791;50.696;4.396;2023-09-07T00:46:15;19.50;99.90
23100;DHT22;53791;50.696;4.396;2023-09-07T00:48:43;19.50;99.90
23100;DHT22;53791;50.696;4.396;2023-09-07T00:51:10;19.50;99.90
23100;DHT22;53791;50.696;4.396;2023-09-07T01:00:05;19.40;99.90
23100;DHT22;53791;50.696;4.396;2023-09-07T01:02:34;19.40;99.90
23100;DHT22;53791;50.696;4.396;2023-09-07T01:05:02;19.30;99.90
23100;DHT22;53791;50.696;4.396;2023-09-07T01:07:40;19.30;99.90
23100;DHT22;53791;50.696;4.396;2023-09-07T01:10:04;19.30;99.90
23100;DHT22;53791;50.696;4.396;2023-09-07T01:12:31;19.20;99.90
23100;DHT22;53791;50.696;4.396;2023-09-07T01:14:59;19.20;99.90
23100;DHT22;53791;50.696;4.396;2023-09-07T01:17:27;19.20;99.90
23100;DHT22;53791;50.696;4.396;2023-09-07T01:19:56;19.20;99.90
23100;DHT22;53791;50.696;4.396;2023-09-07T01:22:26;19.10;99.90
23100;DHT22;53791;50.696;4.396;2023-09-07T01:24:54;19.10;99.90
23100;DHT22;53791;50.696;4.396;2023-09-07T01:27:22;19.10;99.90
23100;DHT22;53791;50.696;4.396;2023-09-07T01:29:51;19.10;99.90
23100;DHT22;53791;50.696;4.396;2023-09-07T01:38:42;19.20;99.90
23100;DHT22;53791;50.696;4.396;2023-09-07T01:41:10;19.20;99.90
23100;DHT22;53791;50.696;4.396;2023-09-07T01:43:38;19.30;99.90
23100;DHT22;53791;50.696;4.396;2023-09-07T01:46:05;19.30;99.90
23100;DHT22;53791;50.696;4.396;2023-09-07T01:48:33;19.30;99.90
23100;DHT22;53791;50.696;4.396;2023-09-07T01:51:01;19.30;99.90
23100;DHT22;53791;50.696;4.396;2023-09-07T01:53:28;19.30;99.90
23100;DHT22;53791;50.696;4.396;2023-09-07T01:55:56;19.20;99.90
23100;DHT22;53791;50.696;4.396;2023-09-07T01:58:25;19.20;99.90
23100;DHT22;53791;50.696;4.396;2023-09-07T02:00:57;19.20;99.90
23100;DHT22;53791;50.696;4.396;2023-09-07T02:03:28;19.20;99.90
23100;DHT22;53791;50.696;4.396;2023-09-07T02:05:55;19.10;99.90
23100;DHT22;53791;50.696;4.396;2023-09-07T02:08:23;19.10;99.90
23100;DHT22;53791;50.696;4.396;2023-09-07T02:10:50;19.00;99.90
23100;DHT22;53791;50.696;4.396;2023-09-07T02:13:18;19.00;99.90
23100;DHT22;53791;50.696;4.396;2023-09-07T02:15:45;18.90;99.90
23100;DHT22;53791;50.696;4.396;2023-09-07T02:18:13;18.90;99.90
23100;DHT22;53791;50.696;4.396;2023-09-07T02:20:41;18.80;99.90
23100;DHT22;53791;50.696;4.396;2023-09-07T02:23:08;18.80;99.90
23100;DHT22;53791;50.696;4.396;2023-09-07T02:25:46;18.80;99.90
23100;DHT22;53791;50.696;4.396;2023-09-07T02:28:14;18.70;99.90
23100;DHT22;53791;50.696;4.396;2023-09-07T02:30:41;18.70;99.90
23100;DHT22;53791;50.696;4.396;2023-09-07T02:33:09;18.70;99.90
23100;DHT22;53791;50.696;4.396;2023-09-07T02:35:39;18.60;99.90
23100;DHT22;53791;50.696;4.396;2023-09-07T02:38:06;18.60;99.90
23100;DHT22;53791;50.696;4.396;2023-09-07T02:40:42;18.50;99.90
23100;DHT22;53791;50.696;4.396;2023-09-07T02:43:10;18.50;99.90
23100;DHT22;53791;50.696;4.396;2023-09-07T02:45:38;18.50;99.90
23100;DHT22;53791;50.696;4.396;2023-09-07T02:48:06;18.40;99.90
23100;DHT22;53791;50.696;4.396;2023-09-07T02:50:34;18.40;99.90
23100;DHT22;53791;50.696;4.396;2023-09-07T02:53:15;18.40;99.90
23100;DHT22;53791;50.696;4.396;2023-09-07T02:55:43;18.40;99.90
23100;DHT22;53791;50.696;4.396;2023-09-07T02:58:10;18.40;99.90
23100;DHT22;53791;50.696;4.396;2023-09-07T03:00:45;18.30;99.90
23100;DHT22;53791;50.696;4.396;2023-09-07T03:03:13;18.40;99.90
23100;DHT22;53791;50.696;4.396;2023-09-07T03:05:43;18.30;99.90
23100;DHT22;53791;50.696;4.396;2023-09-07T03:08:11;18.30;99.90
23100;DHT22;53791;50.696;4.396;2023-09-07T03:13:44;18.20;99.90
23100;DHT22;53791;50.696;4.396;2023-09-07T03:16:12;18.20;99.90
23100;DHT22;53791;50.696;4.396;2023-09-07T03:18:39;18.20;99.90
23100;DHT22;53791;50.696;4.396;2023-09-07T03:21:07;18.20;99.90
23100;DHT22;53791;50.696;4.396;2023-09-07T03:23:35;18.20;99.90
23100;DHT22;53791;50.696;4.396;2023-09-07T03:26:16;18.20;99.90
23100;DHT22;53791;50.696;4.396;2023-09-07T03:28:43;18.20;99.90
23100;DHT22;53791;50.696;4.396;2023-09-07T03:31:11;18.20;99.90
23100;DHT22;53791;50.696;4.396;2023-09-07T03:33:38;18.30;99.90
23100;DHT22;53791;50.696;4.396;2023-09-07T03:36:06;18.20;99.90
23100;DHT22;53791;50.696;4.396;2023-09-07T03:38:35;18.20;99.90
23100;DHT22;53791;50.696;4.396;2023-09-07T03:41:03;18.30;99.90
23100;DHT22;53791;50.696;4.396;2023-09-07T03:43:30;18.30;99.90
23100;DHT22;53791;50.696;4.396;2023-09-07T03:45:58;18.30;99.90
23100;DHT22;53791;50.696;4.396;2023-09-07T03:48:25;18.20;99.90
23100;DHT22;53791;50.696;4.396;2023-09-07T03:50:53;18.30;99.90
23100;DHT22;53791;50.696;4.396;2023-09-07T03:53:20;18.20;99.90
23100;DHT22;53791;50.696;4.396;2023-09-07T03:55:48;18.10;99.90
23100;DHT22;53791;50.696;4.396;2023-09-07T03:58:15;18.20;99.90
23100;DHT22;53791;50.696;4.396;2023-09-07T04:03:48;18.20;99.90
23100;DHT22;53791;50.696;4.396;2023-09-07T04:06:16;18.20;99.90
23100;DHT22;53791;50.696;4.396;2023-09-07T04:08:44;18.10;99.90
23100;DHT22;53791;50.696;4.396;2023-09-07T04:11:11;18.10;99.90
23100;DHT22;53791;50.696;4.396;2023-09-07T04:13:39;18.10;99.90
23100;DHT22;53791;50.696;4.396;2023-09-07T04:16:08;18.20;99.90
23100;DHT22;53791;50.696;4.396;2023-09-07T04:18:36;18.20;99.90
23100;DHT22;53791;50.696;4.396;2023-09-07T04:21:08;18.10;99.90
23100;DHT22;53791;50.696;4.396;2023-09-07T04:23:36;18.10;99.90
23100;DHT22;53791;50.696;4.396;2023-09-07T04:26:12;18.00;99.90
23100;DHT22;53791;50.696;4.396;2023-09-07T04:28:36;17.90;99.90
23100;DHT22;53791;50.696;4.396;2023-09-07T04:31:05;17.90;99.90
23100;DHT22;53791;50.696;4.396;2023-09-07T04:33:33;17.80;99.90
23100;DHT22;53791;50.696;4.396;2023-09-07T04:36:10;17.80;99.90
23100;DHT22;53791;50.696;4.396;2023-09-07T04:38:39;17.70;99.90
23100;DHT22;53791;50.696;4.396;2023-09-07T04:41:11;17.60;99.90
23100;DHT22;53791;50.696;4.396;2023-09-07T04:43:40;17.60;99.90
23100;DHT22;53791;50.696;4.396;2023-09-07T04:46:10;17.60;99.90
23100;DHT22;53791;50.696;4.396;2023-09-07T04:48:48;17.50;99.90
23100;DHT22;53791;50.696;4.396;2023-09-07T04:51:15;17.50;99.90
23100;DHT22;53791;50.696;4.396;2023-09-07T04:53:43;17.40;99.90
23100;DHT22;53791;50.696;4.396;2023-09-07T04:56:10;17.40;99.90
23100;DHT22;53791;50.696;4.396;2023-09-07T04:58:39;17.40;99.90
23100;DHT22;53791;50.696;4.396;2023-09-07T05:01:11;17.30;99.90
23100;DHT22;53791;50.696;4.396;2023-09-07T05:03:39;17.30;99.90
23100;DHT22;53791;50.696;4.396;2023-09-07T05:06:06;17.30;99.90
23100;DHT22;53791;50.696;4.396;2023-09-07T05:08:46;17.30;99.90
23100;DHT22;53791;50.696;4.396;2023-09-07T05:21:22;17.30;99.90
23100;DHT22;53791;50.696;4.396;2023-09-07T05:23:51;17.20;99.90
23100;DHT22;53791;50.696;4.396;2023-09-07T05:26:22;17.20;99.90
23100;DHT22;53791;50.696;4.396;2023-09-07T05:28:51;17.10;99.90
23100;DHT22;53791;50.696;4.396;2023-09-07T05:31:18;17.10;99.90
23100;DHT22;53791;50.696;4.396;2023-09-07T05:33:46;17.10;99.90
23100;DHT22;53791;50.696;4.396;2023-09-07T05:36:14;17.10;99.90
23100;DHT22;53791;50.696;4.396;2023-09-07T05:38:41;17.10;99.90
23100;DHT22;53791;50.696;4.396;2023-09-07T05:41:09;17.10;99.90
23100;DHT22;53791;50.696;4.396;2023-09-07T05:43:47;17.20;99.90
23100;DHT22;53791;50.696;4.396;2023-09-07T05:46:15;17.20;99.90
23100;DHT22;53791;50.696;4.396;2023-09-07T05:48:43;17.30;99.90
23100;DHT22;53791;50.696;4.396;2023-09-07T05:51:10;17.20;99.90
23100;DHT22;53791;50.696;4.396;2023-09-07T05:53:39;17.30;99.90
23100;DHT22;53791;50.696;4.396;2023-09-07T05:56:06;17.30;99.90
23100;DHT22;53791;50.696;4.396;2023-09-07T05:58:34;17.40;99.90
23100;DHT22;53791;50.696;4.396;2023-09-07T06:01:02;17.40;99.90
23100;DHT22;53791;50.696;4.396;2023-09-07T06:03:38;17.50;99.90
23100;DHT22;53791;50.696;4.396;2023-09-07T06:06:16;17.60;99.90
23100;DHT22;53791;50.696;4.396;2023-09-07T06:08:44;17.70;99.90
23100;DHT22;53791;50.696;4.396;2023-09-07T06:11:19;17.80;99.90
23100;DHT22;53791;50.696;4.396;2023-09-07T06:13:46;18.00;99.90
23100;DHT22;53791;50.696;4.396;2023-09-07T06:16:14;18.10;99.90
23100;DHT22;53791;50.696;4.396;2023-09-07T06:18:41;18.20;99.90
23100;DHT22;53791;50.696;4.396;2023-09-07T06:21:09;18.40;99.90
23100;DHT22;53791;50.696;4.396;2023-09-07T06:30:05;18.70;99.90
23100;DHT22;53791;50.696;4.396;2023-09-07T06:32:32;18.90;99.90
23100;DHT22;53791;50.696;4.396;2023-09-07T06:35:00;19.00;99.90
23100;DHT22;53791;50.696;4.396;2023-09-07T06:40:06;19.30;99.90
23100;DHT22;53791;50.696;4.396;2023-09-07T06:42:39;19.40;99.90
23100;DHT22;53791;50.696;4.396;2023-09-07T06:45:03;19.50;99.90
23100;DHT22;53791;50.696;4.396;2023-09-07T06:47:36;19.60;99.90
23100;DHT22;53791;50.696;4.396;2023-09-07T06:50:01;19.80;99.90
23100;DHT22;53791;50.696;4.396;2023-09-07T06:52:28;19.90;99.90
23100;DHT22;53791;50.696;4.396;2023-09-07T06:54:56;20.10;99.90
23100;DHT22;53791;50.696;4.396;2023-09-07T06:57:23;20.20;99.90
23100;DHT22;53791;50.696;4.396;2023-09-07T06:59:54;20.30;99.90
23100;DHT22;53791;50.696;4.396;2023-09-07T07:02:24;20.40;99.90
23100;DHT22;53791;50.696;4.396;2023-09-07T07:04:52;20.60;99.90
23100;DHT22;53791;50.696;4.396;2023-09-07T07:07:19;20.80;99.90
23100;DHT22;53791;50.696;4.396;2023-09-07T07:09:49;21.00;99.90
23100;DHT22;53791;50.696;4.396;2023-09-07T07:12:17;21.10;99.90
23100;DHT22;53791;50.696;4.396;2023-09-07T07:14:47;21.20;99.90
23100;DHT22;53791;50.696;4.396;2023-09-07T07:20:41;21.50;99.90
23100;DHT22;53791;50.696;4.396;2023-09-07T07:23:10;21.60;99.90
23100;DHT22;53791;50.696;4.396;2023-09-07T07:25:39;21.70;99.90
23100;DHT22;53791;50.696;4.396;2023-09-07T07:28:07;21.90;99.90
23100;DHT22;53791;50.696;4.396;2023-09-07T07:30:36;22.10;99.90
23100;DHT22;53791;50.696;4.396;2023-09-07T07:33:04;22.10;99.90
23100;DHT22;53791;50.696;4.396;2023-09-07T07:35:33;22.30;99.90
23100;DHT22;53791;50.696;4.396;2023-09-07T07:38:03;22.50;99.90
23100;DHT22;53791;50.696;4.396;2023-09-07T07:40:31;22.70;99.90
23100;DHT22;53791;50.696;4.396;2023-09-07T07:49:25;23.20;99.90
23100;DHT22;53791;50.696;4.396;2023-09-07T07:51:54;23.40;99.90
23100;DHT22;53791;50.696;4.396;2023-09-07T07:54:23;23.50;99.90
23100;DHT22;53791;50.696;4.396;2023-09-07T07:56:51;23.50;99.90
23100;DHT22;53791;50.696;4.396;2023-09-07T07:59:18;23.70;99.90
23100;DHT22;53791;50.696;4.396;2023-09-07T08:01:46;23.70;99.90
23100;DHT22;53791;50.696;4.396;2023-09-07T08:04:13;23.80;99.90
23100;DHT22;53791;50.696;4.396;2023-09-07T08:06:56;23.80;99.90
23100;DHT22;53791;50.696;4.396;2023-09-07T08:09:13;23.90;99.90
23100;DHT22;53791;50.696;4.396;2023-09-07T08:11:42;24.00;99.90
23100;DHT22;53791;50.696;4.396;2023-09-07T08:14:11;24.30;99.90
23100;DHT22;53791;50.696;4.396;2023-09-07T08:16:39;24.40;99.90
23100;DHT22;53791;50.696;4.396;2023-09-07T08:19:08;24.30;99.90
23100;DHT22;53791;50.696;4.396;2023-09-07T08:21:42;24.30;99.90
23100;DHT22;53791;50.696;4.396;2023-09-07T08:24:09;24.50;99.90
23100;DHT22;53791;50.696;4.396;2023-09-07T08:26:43;24.60;99.90
23100;DHT22;53791;50.696;4.396;2023-09-07T08:29:13;24.60;99.90
23100;DHT22;53791;50.696;4.396;2023-09-07T08:31:42;24.60;99.90
23100;DHT22;53791;50.696;4.396;2023-09-07T08:34:14;24.70;99.90
23100;DHT22;53791;50.696;4.396;2023-09-07T08:36:49;24.80;99.90
23100;DHT22;53791;50.696;4.396;2023-09-07T08:45:16;24.80;99.90
23100;DHT22;53791;50.696;4.396;2023-09-07T08:47:40;24.50;99.90
23100;DHT22;53791;50.696;4.396;2023-09-07T08:52:55;25.00;99.90
23100;DHT22;53791;50.696;4.396;2023-09-07T08:55:33;25.10;99.90
23100;DHT22;53791;50.696;4.396;2023-09-07T09:04:41;25.40;99.90
23100;DHT22;53791;50.696;4.396;2023-09-07T09:07:09;25.80;99.90
23100;DHT22;53791;50.696;4.396;2023-09-07T09:09:41;25.60;99.90
23100;DHT22;53791;50.696;4.396;2023-09-07T09:12:13;25.50;99.90
23100;DHT22;53791;50.696;4.396;2023-09-07T09:14:43;25.50;99.90
23100;DHT22;53791;50.696;4.396;2023-09-07T09:17:14;25.60;99.90
23100;DHT22;53791;50.696;4.396;2023-09-07T09:22:56;25.80;99.90
23100;DHT22;53791;50.696;4.396;2023-09-07T09:25:32;26.10;99.90
23100;DHT22;53791;50.696;4.396;2023-09-07T09:28:01;26.30;99.90
23100;DHT22;53791;50.696;4.396;2023-09-07T09:30:34;26.30;99.90
23100;DHT22;53791;50.696;4.396;2023-09-07T09:32:59;26.50;99.90
23100;DHT22;53791;50.696;4.396;2023-09-07T09:35:26;26.70;99.90
23100;DHT22;53791;50.696;4.396;2023-09-07T09:38:00;26.70;99.90
23100;DHT22;53791;50.696;4.396;2023-09-07T09:40:25;26.70;99.90
23100;DHT22;53791;50.696;4.396;2023-09-07T09:43:00;26.80;99.90
23100;DHT22;53791;50.696;4.396;2023-09-07T09:45:26;26.90;99.90
23100;DHT22;53791;50.696;4.396;2023-09-07T09:47:55;26.90;99.90
23100;DHT22;53791;50.696;4.396;2023-09-07T09:50:27;26.80;99.90
23100;DHT22;53791;50.696;4.396;2023-09-07T09:53:00;27.10;99.90
23100;DHT22;53791;50.696;4.396;2023-09-07T09:55:30;27.00;99.90
23100;DHT22;53791;50.696;4.396;2023-09-07T09:57:58;27.00;99.90
23100;DHT22;53791;50.696;4.396;2023-09-07T10:00:29;27.20;99.90
23100;DHT22;53791;50.696;4.396;2023-09-07T10:03:20;27.10;99.90
23100;DHT22;53791;50.696;4.396;2023-09-07T10:05:47;27.10;99.90
23100;DHT22;53791;50.696;4.396;2023-09-07T10:08:18;27.40;99.90
23100;DHT22;53791;50.696;4.396;2023-09-07T10:10:52;27.50;99.90
23100;DHT22;53791;50.696;4.396;2023-09-07T10:22:27;28.10;99.90
23100;DHT22;53791;50.696;4.396;2023-09-07T10:28:27;27.80;99.90
23100;DHT22;53791;50.696;4.396;2023-09-07T10:31:07;27.90;99.90
23100;DHT22;53791;50.696;4.396;2023-09-07T10:33:36;28.10;99.90
23100;DHT22;53791;50.696;4.396;2023-09-07T10:36:05;28.40;99.90
23100;DHT22;53791;50.696;4.396;2023-09-07T10:38:34;28.60;99.90
23100;DHT22;53791;50.696;4.396;2023-09-07T10:43:56;28.80;99.90
23100;DHT22;53791;50.696;4.396;2023-09-07T10:46:43;28.90;99.90
23100;DHT22;53791;50.696;4.396;2023-09-07T10:48:58;29.20;99.90
23100;DHT22;53791;50.696;4.396;2023-09-07T10:51:26;29.40;99.90
23100;DHT22;53791;50.696;4.396;2023-09-07T10:53:53;29.50;99.90
23100;DHT22;53791;50.696;4.396;2023-09-07T10:56:29;29.50;99.90
23100;DHT22;53791;50.696;4.396;2023-09-07T10:59:03;29.70;99.90
23100;DHT22;53791;50.696;4.396;2023-09-07T11:01:27;29.70;99.90
23100;DHT22;53791;50.696;4.396;2023-09-07T11:03:58;29.50;99.90
23100;DHT22;53791;50.696;4.396;2023-09-07T11:06:27;29.30;99.90
23100;DHT22;53791;50.696;4.396;2023-09-07T11:08:55;29.40;99.90
23100;DHT22;53791;50.696;4.396;2023-09-07T11:11:22;29.30;99.90
23100;DHT22;53791;50.696;4.396;2023-09-07T11:13:56;29.10;99.90
23100;DHT22;53791;50.696;4.396;2023-09-07T11:16:46;29.00;99.90
23100;DHT22;53791;50.696;4.396;2023-09-07T11:19:16;28.90;99.90
23100;DHT22;53791;50.696;4.396;2023-09-07T11:21:41;28.90;99.90
23100;DHT22;53791;50.696;4.396;2023-09-07T11:24:09;28.90;99.90
23100;DHT22;53791;50.696;4.396;2023-09-07T11:26:46;28.90;99.90
23100;DHT22;53791;50.696;4.396;2023-09-07T11:35:44;28.80;99.90
23100;DHT22;53791;50.696;4.396;2023-09-07T11:38:12;28.80;99.90
23100;DHT22;53791;50.696;4.396;2023-09-07T11:40:42;28.70;99.90
23100;DHT22;53791;50.696;4.396;2023-09-07T11:43:13;28.80;99.90
23100;DHT22;53791;50.696;4.396;2023-09-07T11:52:10;28.40;99.90
23100;DHT22;53791;50.696;4.396;2023-09-07T11:54:41;28.30;99.90
23100;DHT22;53791;50.696;4.396;2023-09-07T11:57:10;28.30;99.90
23100;DHT22;53791;50.696;4.396;2023-09-07T12:02:08;28.30;99.90
23100;DHT22;53791;50.696;4.396;2023-09-07T12:07:13;28.30;99.90
23100;DHT22;53791;50.696;4.396;2023-09-07T12:09:39;28.50;99.90
23100;DHT22;53791;50.696;4.396;2023-09-07T12:12:06;28.40;99.90
23100;DHT22;53791;50.696;4.396;2023-09-07T12:14:34;28.40;99.90
23100;DHT22;53791;50.696;4.396;2023-09-07T12:17:17;28.60;99.90
23100;DHT22;53791;50.696;4.396;2023-09-07T12:19:45;28.60;99.90
23100;DHT22;53791;50.696;4.396;2023-09-07T12:22:16;28.60;99.90
23100;DHT22;53791;50.696;4.396;2023-09-07T12:24:44;28.50;99.90
23100;DHT22;53791;50.696;4.396;2023-09-07T12:29:42;28.40;99.90
23100;DHT22;53791;50.696;4.396;2023-09-07T12:32:10;28.50;99.90
23100;DHT22;53791;50.696;4.396;2023-09-07T12:34:39;28.60;99.90
23100;DHT22;53791;50.696;4.396;2023-09-07T12:37:07;28.40;99.90
23100;DHT22;53791;50.696;4.396;2023-09-07T12:39:39;28.40;99.90
23100;DHT22;53791;50.696;4.396;2023-09-07T12:42:13;28.50;99.90
23100;DHT22;53791;50.696;4.396;2023-09-07T12:44:37;28.50;99.90
23100;DHT22;53791;50.696;4.396;2023-09-07T12:56:12;28.80;99.90
23100;DHT22;53791;50.696;4.396;2023-09-07T12:58:44;28.80;99.90
23100;DHT22;53791;50.696;4.396;2023-09-07T13:01:10;28.70;99.90
23100;DHT22;53791;50.696;4.396;2023-09-07T13:03:40;29.00;99.90
23100;DHT22;53791;50.696;4.396;2023-09-07T13:06:07;29.00;99.90
23100;DHT22;53791;50.696;4.396;2023-09-07T13:08:35;29.20;99.90
23100;DHT22;53791;50.696;4.396;2023-09-07T13:11:02;29.20;99.90
23100;DHT22;53791;50.696;4.396;2023-09-07T13:13:30;29.40;99.90
23100;DHT22;53791;50.696;4.396;2023-09-07T13:15:58;29.40;99.90
23100;DHT22;53791;50.696;4.396;2023-09-07T13:18:25;29.40;99.90
23100;DHT22;53791;50.696;4.396;2023-09-07T13:20:53;29.40;99.90
23100;DHT22;53791;50.696;4.396;2023-09-07T13:23:22;29.40;99.90
23100;DHT22;53791;50.696;4.396;2023-09-07T13:25:50;29.50;99.90
23100;DHT22;53791;50.696;4.396;2023-09-07T13:28:17;29.70;99.90
23100;DHT22;53791;50.696;4.396;2023-09-07T13:30:53;29.90;99.90
23100;DHT22;53791;50.696;4.396;2023-09-07T13:33:19;30.20;99.90
23100;DHT22;53791;50.696;4.396;2023-09-07T13:35:47;30.60;99.90
23100;DHT22;53791;50.696;4.396;2023-09-07T13:38:17;30.80;99.90
23100;DHT22;53791;50.696;4.396;2023-09-07T13:40:47;30.50;99.90
23100;DHT22;53791;50.696;4.396;2023-09-07T13:43:19;30.40;99.90
23100;DHT22;53791;50.696;4.396;2023-09-07T13:45:45;30.70;99.90
23100;DHT22;53791;50.696;4.396;2023-09-07T13:48:14;30.90;99.90
23100;DHT22;53791;50.696;4.396;2023-09-07T13:50:43;31.10;99.90
23100;DHT22;53791;50.696;4.396;2023-09-07T13:53:11;31.20;99.90
23100;DHT22;53791;50.696;4.396;2023-09-07T13:55:41;31.30;99.90
23100;DHT22;53791;50.696;4.396;2023-09-07T13:58:15;31.50;99.90
23100;DHT22;53791;50.696;4.396;2023-09-07T14:00:43;31.80;99.90
23100;DHT22;53791;50.696;4.396;2023-09-07T14:03:14;31.80;99.90
23100;DHT22;53791;50.696;4.396;2023-09-07T14:05:46;31.90;99.90
23100;DHT22;53791;50.696;4.396;2023-09-07T14:08:13;32.00;99.90
23100;DHT22;53791;50.696;4.396;2023-09-07T14:10:41;31.90;99.90
23100;DHT22;53791;50.696;4.396;2023-09-07T14:13:08;32.10;99.90
23100;DHT22;53791;50.696;4.396;2023-09-07T14:15:39;32.00;99.90
23100;DHT22;53791;50.696;4.396;2023-09-07T14:18:19;31.70;99.90
23100;DHT22;53791;50.696;4.396;2023-09-07T14:20:43;31.50;99.90
23100;DHT22;53791;50.696;4.396;2023-09-07T14:23:14;31.50;99.90
23100;DHT22;53791;50.696;4.396;2023-09-07T14:25:43;31.80;99.90
23100;DHT22;53791;50.696;4.396;2023-09-07T14:28:11;32.00;99.90
23100;DHT22;53791;50.696;4.396;2023-09-07T14:30:40;32.40;99.90
23100;DHT22;53791;50.696;4.396;2023-09-07T14:35:37;32.10;99.90
23100;DHT22;53791;50.696;4.396;2023-09-07T14:38:08;31.80;99.90
23100;DHT22;53791;50.696;4.396;2023-09-07T14:40:37;31.70;99.90
23100;DHT22;53791;50.696;4.396;2023-09-07T14:43:05;31.50;99.90
23100;DHT22;53791;50.696;4.396;2023-09-07T14:45:32;31.70;99.90
23100;DHT22;53791;50.696;4.396;2023-09-07T14:48:05;31.70;99.90
23100;DHT22;53791;50.696;4.396;2023-09-07T14:50:33;31.60;99.90
23100;DHT22;53791;50.696;4.396;2023-09-07T14:56:43;31.60;99.90
23100;DHT22;53791;50.696;4.396;2023-09-07T15:07:38;31.70;99.90
23100;DHT22;53791;50.696;4.396;2023-09-07T15:10:13;32.00;99.90
23100;DHT22;53791;50.696;4.396;2023-09-07T15:12:36;31.90;99.90
23100;DHT22;53791;50.696;4.396;2023-09-07T15:15:04;31.60;99.90
23100;DHT22;53791;50.696;4.396;2023-09-07T15:17:45;31.50;99.90
23100;DHT22;53791;50.696;4.396;2023-09-07T15:20:06;31.40;99.90
23100;DHT22;53791;50.696;4.396;2023-09-07T15:22:38;31.40;99.90
23100;DHT22;53791;50.696;4.396;2023-09-07T15:25:06;31.30;99.90
23100;DHT22;53791;50.696;4.396;2023-09-07T15:27:34;31.20;99.90
23100;DHT22;53791;50.696;4.396;2023-09-07T15:30:07;31.20;99.90
23100;DHT22;53791;50.696;4.396;2023-09-07T15:32:33;31.30;99.90
23100;DHT22;53791;50.696;4.396;2023-09-07T15:35:02;31.40;99.90
23100;DHT22;53791;50.696;4.396;2023-09-07T15:37:30;31.30;99.90
23100;DHT22;53791;50.696;4.396;2023-09-07T15:39:57;31.20;99.90
23100;DHT22;53791;50.696;4.396;2023-09-07T15:42:25;31.10;99.90
23100;DHT22;53791;50.696;4.396;2023-09-07T15:44:52;31.20;99.90
23100;DHT22;53791;50.696;4.396;2023-09-07T15:47:20;31.30;99.90
23100;DHT22;53791;50.696;4.396;2023-09-07T15:49:48;31.30;99.90
23100;DHT22;53791;50.696;4.396;2023-09-07T15:52:18;31.30;99.90
23100;DHT22;53791;50.696;4.396;2023-09-07T15:54:45;31.30;99.90
23100;DHT22;53791;50.696;4.396;2023-09-07T15:57:14;31.30;99.90
23100;DHT22;53791;50.696;4.396;2023-09-07T15:59:42;31.20;99.90
23100;DHT22;53791;50.696;4.396;2023-09-07T16:02:09;31.10;99.90
23100;DHT22;53791;50.696;4.396;2023-09-07T16:04:40;31.10;99.90
23100;DHT22;53791;50.696;4.396;2023-09-07T16:07:15;31.10;99.90
23100;DHT22;53791;50.696;4.396;2023-09-07T16:09:43;31.10;99.90
23100;DHT22;53791;50.696;4.396;2023-09-07T16:12:12;31.00;99.90
23100;DHT22;53791;50.696;4.396;2023-09-07T16:14:41;30.90;99.90
23100;DHT22;53791;50.696;4.396;2023-09-07T16:17:09;31.00;99.90
23100;DHT22;53791;50.696;4.396;2023-09-07T16:19:36;31.00;99.90
23100;DHT22;53791;50.696;4.396;2023-09-07T16:22:04;31.00;99.90
23100;DHT22;53791;50.696;4.396;2023-09-07T16:24:33;31.10;99.90
23100;DHT22;53791;50.696;4.396;2023-09-07T16:27:06;31.00;99.90
23100;DHT22;53791;50.696;4.396;2023-09-07T16:29:30;31.00;99.90
23100;DHT22;53791;50.696;4.396;2023-09-07T16:31:57;30.90;99.90
23100;DHT22;53791;50.696;4.396;2023-09-07T16:37:46;31.00;99.90
23100;DHT22;53791;50.696;4.396;2023-09-07T16:40:14;30.80;99.90
23100;DHT22;53791;50.696;4.396;2023-09-07T16:42:43;30.80;99.90
23100;DHT22;53791;50.696;4.396;2023-09-07T16:45:11;30.80;99.90
23100;DHT22;53791;50.696;4.396;2023-09-07T16:47:40;30.80;99.90
23100;DHT22;53791;50.696;4.396;2023-09-07T16:50:10;30.70;99.90
23100;DHT22;53791;50.696;4.396;2023-09-07T16:52:44;30.60;99.90
23100;DHT22;53791;50.696;4.396;2023-09-07T16:55:09;30.50;99.90
23100;DHT22;53791;50.696;4.396;2023-09-07T16:57:53;30.50;99.90
23100;DHT22;53791;50.696;4.396;2023-09-07T17:00:19;30.50;99.90
23100;DHT22;53791;50.696;4.396;2023-09-07T17:02:47;30.60;99.90
23100;DHT22;53791;50.696;4.396;2023-09-07T17:05:16;30.60;99.90
23100;DHT22;53791;50.696;4.396;2023-09-07T17:07:44;30.50;99.90
23100;DHT22;53791;50.696;4.396;2023-09-07T17:10:12;30.40;99.90
23100;DHT22;53791;50.696;4.396;2023-09-07T17:12:41;30.30;99.90
23100;DHT22;53791;50.696;4.396;2023-09-07T17:15:10;30.30;99.90
23100;DHT22;53791;50.696;4.396;2023-09-07T17:17:39;30.40;99.90
23100;DHT22;53791;50.696;4.396;2023-09-07T17:20:13;30.30;99.90
23100;DHT22;53791;50.696;4.396;2023-09-07T17:22:39;30.20;99.90
23100;DHT22;53791;50.696;4.396;2023-09-07T17:25:08;30.20;99.90
23100;DHT22;53791;50.696;4.396;2023-09-07T17:27:36;30.10;99.90
23100;DHT22;53791;50.696;4.396;2023-09-07T17:30:04;30.10;99.90
23100;DHT22;53791;50.696;4.396;2023-09-07T17:32:32;30.00;99.90
23100;DHT22;53791;50.696;4.396;2023-09-07T17:35:06;29.80;99.90
23100;DHT22;53791;50.696;4.396;2023-09-07T17:37:34;29.80;99.90
23100;DHT22;53791;50.696;4.396;2023-09-07T17:40:01;29.70;99.90
23100;DHT22;53791;50.696;4.396;2023-09-07T17:42:29;29.70;99.90
23100;DHT22;53791;50.696;4.396;2023-09-07T17:44:56;29.50;99.90
23100;DHT22;53791;50.696;4.396;2023-09-07T17:47:27;29.50;99.90
23100;DHT22;53791;50.696;4.396;2023-09-07T17:49:53;29.50;99.90
23100;DHT22;53791;50.696;4.396;2023-09-07T17:52:21;29.40;99.90